^^
Saratoga-Weather Station Historical Data
Daily Summary for April 22, 2020 Units:  Metric    English   Both
Daily Weekly Monthly Yearly Custom
  High: Low: Average:
Temperature: 4.2 °C -2.4 °C 0.2 °C
Dew Point: 0.4 °C -3.2 °C -1.7 °C
Humidity: 96% 71% 88%
Wind Speed: 13km/h 0km/h 0.6km/h
Wind Gust: 17.7km/h - -
Wind- - East
Pressure: 1037.2 hPa 1033.2 hPa -
Precipitation: 0.2 mm    
Historical Graphs
 
 
Tabular Data for April 22, 2020
Time Temperature Dew Point Pressure Wind Wind Speed Wind Gust Humidity Rainfall Rate (Hourly) solar
00:00 -0.8 °C -1.8 °C 1037.2 hPa Calm     93% 0.0 mm 0 W/m2
00:05 -0.9 °C -1.7 °C 1037.2 hPa Calm     94% 0.0 mm 0 W/m2
00:10 -1 °C -2 °C 1037.2 hPa Calm     93% 0.0 mm 0 W/m2
00:15 -1.2 °C -2.2 °C 1037.2 hPa Calm     93% 0.0 mm 0 W/m2
00:20 -1.2 °C -2.2 °C 1037.2 hPa Calm     93% 0.0 mm 0 W/m2
00:25 -1.2 °C -2 °C 1037.2 hPa Calm     94% 0.0 mm 0 W/m2
00:30 -1.3 °C -2.1 °C 1037.2 hPa Calm     94% 0.0 mm 0 W/m2
00:35 -1.3 °C -2.1 °C 1037.2 hPa Calm     94% 0.0 mm 0 W/m2
00:40 -1.3 °C -2.1 °C 1037.2 hPa Calm     94% 0.0 mm 0 W/m2
00:45 -1.3 °C -2.1 °C 1037.2 hPa Calm     94% 0.0 mm 0 W/m2
00:50 -1.4 °C -2.2 °C 1037.2 hPa Calm     94% 0.0 mm 0 W/m2
00:55 -1.4 °C -2.2 °C 1036.9 hPa Calm     94% 0.0 mm 0 W/m2
01:00 -1.4 °C -2.2 °C 1036.9 hPa Calm     94% 0.0 mm 0 W/m2
01:05 -1.4 °C -2.2 °C 1036.9 hPa Calm     94% 0.0 mm 0 W/m2
01:11 -1.4 °C -2.2 °C 1036.9 hPa Calm     94% 0.0 mm 0 W/m2
01:16 -1.4 °C -2.2 °C 1036.9 hPa Calm     94% 0.0 mm 0 W/m2
01:21 -1.5 °C -2.3 °C 1036.9 hPa Calm     94% 0.0 mm 0 W/m2
01:26 -1.6 °C -2.4 °C 1036.9 hPa Calm   1.6 km/h 94% 0.0 mm 0 W/m2
01:31 -1.5 °C -2.3 °C 1036.9 hPa Calm     94% 0.0 mm 0 W/m2
01:36 -1.5 °C -2.3 °C 1036.9 hPa Calm     94% 0.0 mm 0 W/m2
01:41 -1.4 °C -2.2 °C 1036.6 hPa Calm     94% 0.0 mm 0 W/m2
01:46 -1.5 °C -2.3 °C 1036.6 hPa Calm     94% 0.0 mm 0 W/m2
01:51 -1.6 °C -2.4 °C 1036.6 hPa Calm     94% 0.0 mm 0 W/m2
01:56 -1.7 °C -2.5 °C 1036.2 hPa Calm     94% 0.0 mm 0 W/m2
02:01 -1.7 °C -2.5 °C 1036.6 hPa Calm     94% 0.0 mm 0 W/m2
02:06 -1.8 °C -2.6 °C 1036.2 hPa Calm     94% 0.0 mm 0 W/m2
02:11 -1.8 °C -2.6 °C 1036.2 hPa Calm     94% 0.0 mm 0 W/m2
02:16 -1.8 °C -2.6 °C 1036.2 hPa Calm     94% 0.0 mm 0 W/m2
02:21 -1.9 °C -2.7 °C 1036.2 hPa Calm     94% 0.0 mm 0 W/m2
02:26 -1.9 °C -2.7 °C 1036.2 hPa Calm     94% 0.0 mm 0 W/m2
02:31 -1.9 °C -2.6 °C 1036.2 hPa Calm     95% 0.0 mm 0 W/m2
02:36 -1.9 °C -2.6 °C 1036.2 hPa Calm     95% 0.0 mm 0 W/m2
02:41 -2 °C -2.7 °C 1036.2 hPa Calm     95% 0.0 mm 0 W/m2
02:46 -2 °C -2.7 °C 1036.2 hPa Calm     95% 0.0 mm 0 W/m2
02:51 -2 °C -2.7 °C 1036.2 hPa Calm     95% 0.0 mm 0 W/m2
02:56 -2 °C -2.7 °C 1035.9 hPa Calm     95% 0.0 mm 0 W/m2
03:01 -2 °C -2.7 °C 1035.9 hPa Calm     95% 0.0 mm 0 W/m2
03:06 -2 °C -2.7 °C 1035.9 hPa Calm     95% 0.0 mm 0 W/m2
03:12 -2.1 °C -2.8 °C 1035.6 hPa Calm     95% 0.0 mm 0 W/m2
03:17 -2.2 °C -2.9 °C 1035.9 hPa Calm     95% 0.0 mm 0 W/m2
03:22 -2.2 °C -2.9 °C 1035.6 hPa Calm     95% 0.0 mm 0 W/m2
03:27 -2.2 °C -2.9 °C 1035.6 hPa Calm     95% 0.0 mm 0 W/m2
03:32 -2.2 °C -2.9 °C 1035.6 hPa Calm     95% 0.0 mm 0 W/m2
03:37 -2.2 °C -2.9 °C 1035.9 hPa Calm     95% 0.0 mm 0 W/m2
03:42 -2.3 °C -3 °C 1035.6 hPa Calm     95% 0.0 mm 0 W/m2
03:47 -2.2 °C -2.9 °C 1035.6 hPa Calm     95% 0.0 mm 0 W/m2
03:52 -2.2 °C -2.9 °C 1035.6 hPa Calm     95% 0.0 mm 0 W/m2
03:57 -2.1 °C -2.8 °C 1035.6 hPa Calm     95% 0.0 mm 0 W/m2
04:02 -2.1 °C -2.8 °C 1035.6 hPa Calm   3.2 km/h 95% 0.0 mm 0 W/m2
04:07 -2.1 °C -2.8 °C 1035.6 hPa Calm     95% 0.0 mm 0 W/m2
04:12 -2.1 °C -2.8 °C 1035.6 hPa Calm   3.2 km/h 95% 0.0 mm 0 W/m2
04:17 -2.1 °C -2.8 °C 1035.6 hPa Calm     95% 0.0 mm 0 W/m2
04:22 -1.9 °C -2.6 °C 1035.6 hPa Calm   1.6 km/h 95% 0.0 mm 0 W/m2
04:27 -1.7 °C -2.4 °C 1035.6 hPa Calm     95% 0.0 mm 0 W/m2
04:32 -1.6 °C -2.2 °C 1035.6 hPa Calm     96% 0.0 mm 0 W/m2
04:37 -1.5 °C -2.2 °C 1035.6 hPa Calm   1.6 km/h 95% 0.0 mm 0 W/m2
04:42 -1.5 °C -2.2 °C 1035.6 hPa Calm     95% 0.0 mm 0 W/m2
04:47 -1.4 °C -2.1 °C 1035.6 hPa Calm   1.6 km/h 95% 0.0 mm 0 W/m2
04:52 -1.5 °C -2.2 °C 1035.9 hPa Calm   1.6 km/h 95% 0.0 mm 0 W/m2
04:57 -1.5 °C -2.2 °C 1035.9 hPa Calm   1.6 km/h 95% 0.0 mm 0 W/m2
05:02 -1.5 °C -2.2 °C 1035.9 hPa Calm     95% 0.0 mm 0 W/m2
05:07 -1.6 °C -2.4 °C 1035.6 hPa Calm     94% 0.0 mm 0 W/m2
05:12 -1.7 °C -2.5 °C 1035.6 hPa Calm     94% 0.0 mm 0 W/m2
05:17 -1.7 °C -2.5 °C 1035.6 hPa Calm     94% 0.0 mm 0 W/m2
05:22 -1.8 °C -2.6 °C 1035.6 hPa Calm     94% 0.0 mm 0 W/m2
05:27 -1.8 °C -2.6 °C 1035.6 hPa Calm     94% 0.0 mm 0 W/m2
05:32 -1.8 °C -2.6 °C 1035.6 hPa Calm     94% 0.0 mm 0 W/m2
05:37 -1.8 °C -2.6 °C 1035.6 hPa Calm     94% 0.0 mm 0 W/m2
05:42 -1.8 °C -2.6 °C 1035.6 hPa Calm     94% 0.0 mm 0 W/m2
05:47 -1.9 °C -2.7 °C 1035.6 hPa Calm     94% 0.0 mm 0 W/m2
05:52 -1.8 °C -2.5 °C 1035.6 hPa Calm     95% 0.0 mm 0 W/m2
05:57 -1.6 °C -2.3 °C 1035.6 hPa Calm     95% 0.0 mm 0 W/m2
06:02 -1.6 °C -2.3 °C 1035.2 hPa Calm     95% 0.0 mm 0 W/m2
06:07 -1.6 °C -2.3 °C 1035.2 hPa Calm     95% 0.0 mm 0 W/m2
06:12 -1.5 °C -2.2 °C 1035.2 hPa Calm     95% 0.0 mm 0 W/m2
06:17 -1.4 °C -2.2 °C 1035.2 hPa Calm     94% 0.0 mm 0 W/m2
06:22 -1.4 °C -2.2 °C 1035.2 hPa Calm     94% 0.0 mm 0 W/m2
06:27 -1.4 °C -2.2 °C 1035.2 hPa Calm   1.6 km/h 94% 0.0 mm 0 W/m2
06:32 -1.5 °C -2.3 °C 1035.2 hPa Calm     94% 0.0 mm 0 W/m2
06:37 -1.5 °C -2.3 °C 1035.2 hPa Calm     94% 0.0 mm 0 W/m2
06:42 -1.4 °C -2.1 °C 1035.2 hPa Calm     95% 0.0 mm 0 W/m2
06:47 -1.4 °C -2.2 °C 1035.2 hPa Calm     94% 0.0 mm 0 W/m2
06:52 -1.5 °C -2.3 °C 1035.2 hPa Calm     94% 0.0 mm 0 W/m2
06:57 -1.6 °C -2.4 °C 1035.2 hPa Calm     94% 0.0 mm 0 W/m2
07:02 -1.7 °C -2.5 °C 1035.2 hPa Calm     94% 0.0 mm 0 W/m2
07:07 -1.7 °C -2.5 °C 1035.2 hPa Calm     94% 0.0 mm 0 W/m2
07:12 -1.7 °C -2.5 °C 1035.2 hPa Calm   1.6 km/h 94% 0.0 mm 0 W/m2
07:17 -1.7 °C -2.5 °C 1035.2 hPa Calm     94% 0.0 mm 0 W/m2
07:22 -1.7 °C -2.5 °C 1035.2 hPa Calm     94% 0.0 mm 0 W/m2
07:27 -1.8 °C -2.6 °C 1035.2 hPa Calm     94% 0.0 mm 0 W/m2
07:32 -1.8 °C -2.6 °C 1035.2 hPa Calm     94% 0.0 mm 0 W/m2
07:37 -1.8 °C -2.6 °C 1035.2 hPa Calm     94% 0.0 mm 0 W/m2
07:42 -1.8 °C -2.6 °C 1035.2 hPa Calm     94% 0.0 mm 0 W/m2
07:47 -1.8 °C -2.6 °C 1035.2 hPa Calm     94% 0.0 mm 0 W/m2
07:52 -1.8 °C -2.6 °C 1035.2 hPa Calm     94% 0.0 mm 0 W/m2
07:57 -1.8 °C -2.6 °C 1035.2 hPa Calm     94% 0.0 mm 0 W/m2
08:02 -1.9 °C -2.7 °C 1035.6 hPa Calm     94% 0.0 mm 0 W/m2
08:07 -2.1 °C -3.1 °C 1035.6 hPa Calm     93% 0.0 mm 0 W/m2
08:12 -2.2 °C -3.2 °C 1035.6 hPa Calm     93% 0.0 mm 0 W/m2
08:17 -2.3 °C -3.1 °C 1035.6 hPa Calm     94% 0.0 mm 0 W/m2
08:22 -2.4 °C -3.2 °C 1035.9 hPa Calm     94% 0.0 mm 0 W/m2
08:27 -2.4 °C -3.2 °C 1035.9 hPa Calm     94% 0.0 mm 5 W/m2
08:32 -2.4 °C -3.2 °C 1035.6 hPa Calm     94% 0.0 mm 7 W/m2
08:37 -2.3 °C -3.1 °C 1035.6 hPa Calm     94% 0.0 mm 11 W/m2
08:42 -2.2 °C -3 °C 1035.6 hPa Calm     94% 0.0 mm 11 W/m2
08:47 -2.2 °C -3 °C 1035.6 hPa Calm     94% 0.0 mm 12 W/m2
08:52 -2.2 °C -3 °C 1035.9 hPa Calm   1.6 km/h 94% 0.0 mm 12 W/m2
08:57 -2.2 °C -3 °C 1035.9 hPa Calm     94% 0.0 mm 14 W/m2
09:02 -2.1 °C -2.9 °C 1035.9 hPa Calm     94% 0.0 mm 14 W/m2
09:07 -2 °C -2.8 °C 1035.9 hPa Calm     94% 0.0 mm 16 W/m2
09:12 -2 °C -2.7 °C 1035.9 hPa Calm     95% 0.0 mm 16 W/m2
09:17 -1.9 °C -2.7 °C 1035.6 hPa Calm     94% 0.0 mm 18 W/m2
09:22 -1.9 °C -2.7 °C 1035.9 hPa Calm     94% 0.0 mm 19 W/m2
09:27 -1.9 °C -2.7 °C 1035.9 hPa Calm     94% 0.0 mm 19 W/m2
09:32 -1.9 °C -2.7 °C 1035.6 hPa Calm     94% 0.0 mm 19 W/m2
09:37 -1.9 °C -2.7 °C 1035.6 hPa Calm     94% 0.0 mm 25 W/m2
09:42 -1.8 °C -2.6 °C 1035.6 hPa Calm     94% 0.0 mm 21 W/m2
09:47 -1.8 °C -2.6 °C 1035.6 hPa Calm     94% 0.0 mm 21 W/m2
09:52 -1.8 °C -2.6 °C 1035.6 hPa Calm     94% 0.0 mm 23 W/m2
09:57 -1.7 °C -2.5 °C 1035.6 hPa Calm     94% 0.0 mm 21 W/m2
10:02 -1.7 °C -2.5 °C 1035.2 hPa Calm     94% 0.0 mm 21 W/m2
10:08 -1.6 °C -2.4 °C 1035.2 hPa Calm     94% 0.0 mm 23 W/m2
10:13 -1.5 °C -2.3 °C 1035.2 hPa Calm     94% 0.0 mm 23 W/m2
10:18 -1.4 °C -2.1 °C 1035.2 hPa Calm     95% 0.0 mm 23 W/m2
10:23 -1.3 °C -2.1 °C 1035.2 hPa Calm     94% 0.0 mm 25 W/m2
10:28 -1.2 °C -2 °C 1035.2 hPa Calm     94% 0.0 mm 25 W/m2
10:33 -0.9 °C -1.7 °C 1035.2 hPa Calm     94% 0.0 mm 25 W/m2
10:38 -0.8 °C -1.6 °C 1035.6 hPa Calm     94% 0.0 mm 28 W/m2
10:43 -0.7 °C -1.7 °C 1035.6 hPa Calm     93% 0.0 mm 25 W/m2
10:48 -0.6 °C -1.6 °C 1035.6 hPa Calm     93% 0.0 mm 30 W/m2
10:53 -0.6 °C -1.6 °C 1035.6 hPa Calm     93% 0.0 mm 32 W/m2
10:58 -0.6 °C -1.7 °C 1035.6 hPa Calm     92% 0.0 mm 26 W/m2
11:03 -0.4 °C -1.5 °C 1035.2 hPa Calm     92% 0.0 mm 33 W/m2
11:08 -0.3 °C -1.4 °C 1035.2 hPa Calm     92% 0.0 mm 26 W/m2
11:13 -0.2 °C -1.3 °C 1035.2 hPa Calm     92% 0.0 mm 33 W/m2
11:18 -0.1 °C -1.2 °C 1035.2 hPa Calm     92% 0.0 mm 40 W/m2
11:23 0 °C -1.3 °C 1035.6 hPa Calm     91% 0.0 mm 35 W/m2
11:28 0.1 °C -1.2 °C 1035.6 hPa Calm     91% 0.0 mm 47 W/m2
11:33 0.2 °C -1.1 °C 1035.6 hPa Calm   1.6 km/h 91% 0.0 mm 33 W/m2
11:38 0.3 °C -1 °C 1035.6 hPa Calm     91% 0.0 mm 32 W/m2
11:43 0.6 °C -0.9 °C 1035.6 hPa Calm     90% 0.0 mm 51 W/m2
11:48 0.7 °C -0.8 °C 1035.6 hPa Calm   1.6 km/h 90% 0.0 mm 49 W/m2
11:53 0.7 °C -0.9 °C 1035.6 hPa ENE 3.2 km/h 4.8 km/h 89% 0.0 mm 32 W/m2
11:58 0.8 °C -0.8 °C 1035.6 hPa Calm   1.6 km/h 89% 0.0 mm 42 W/m2
12:03 0.9 °C -0.7 °C 1035.6 hPa Calm     89% 0.0 mm 33 W/m2
12:08 1.1 °C -0.7 °C 1035.6 hPa ENE 1.4 km/h 3.2 km/h 88% 0.0 mm 32 W/m2
12:13 1.2 °C -0.6 °C 1035.6 hPa Calm     88% 0.0 mm 32 W/m2
12:18 1.3 °C -0.6 °C 1035.6 hPa Calm     87% 0.0 mm 37 W/m2
12:23 1.3 °C -0.6 °C 1035.6 hPa Calm   4.8 km/h 87% 0.0 mm 42 W/m2
12:28 1.4 °C -0.7 °C 1035.2 hPa Calm     86% 0.0 mm 35 W/m2
12:33 1.4 °C -0.7 °C 1035.2 hPa Calm   3.2 km/h 86% 0.0 mm 51 W/m2
12:38 1.4 °C -0.8 °C 1035.2 hPa Calm   1.6 km/h 85% 0.0 mm 32 W/m2
12:43 1.6 °C -0.6 °C 1035.2 hPa Calm   1.6 km/h 85% 0.0 mm 35 W/m2
12:48 1.7 °C -0.6 °C 1035.2 hPa NNE 3.2 km/h 4.8 km/h 85% 0.0 mm 44 W/m2
12:53 1.9 °C -0.5 °C 1035.2 hPa Calm   6.4 km/h 84% 0.0 mm 32 W/m2
12:58 2.2 °C -0.2 °C 1035.2 hPa Calm   3.2 km/h 84% 0.0 mm 32 W/m2
13:03 2.3 °C -0.1 °C 1035.2 hPa Calm     84% 0.0 mm 35 W/m2
13:08 2.4 °C -0.2 °C 1035.2 hPa Calm   6.4 km/h 83% 0.0 mm 39 W/m2
13:13 2.5 °C -0.1 °C 1035.2 hPa Calm   1.6 km/h 83% 0.0 mm 35 W/m2
13:18 2.6 °C -0.2 °C 1034.9 hPa Calm   3.2 km/h 82% 0.0 mm 30 W/m2
13:23 2.6 °C -0.2 °C 1034.9 hPa NE 4.7 km/h 6.4 km/h 82% 0.0 mm 28 W/m2
13:28 2.7 °C -0.1 °C 1034.9 hPa Calm   4.8 km/h 82% 0.0 mm 35 W/m2
13:33 2.8 °C 0.2 °C 1034.9 hPa NNE 7.9 km/h 8 km/h 83% 0.0 mm 33 W/m2
13:38 3 °C 0.2 °C 1034.9 hPa Calm   8 km/h 82% 0.0 mm 46 W/m2
13:43 3.1 °C 0.3 °C 1034.5 hPa NNW 4.7 km/h 4.8 km/h 82% 0.0 mm 33 W/m2
13:48 3.2 °C 0.1 °C 1034.5 hPa NNE 6.4 km/h 6.4 km/h 80% 0.0 mm 32 W/m2
13:53 3.3 °C 0.2 °C 1034.5 hPa NNE 6.4 km/h 12.9 km/h 80% 0.0 mm 37 W/m2
13:58 3.4 °C 0.1 °C 1034.5 hPa NNW 3.2 km/h 3.2 km/h 79% 0.2 mm 40 W/m2
14:03 3.5 °C 0.2 °C 1034.5 hPa NE 3.2 km/h 12.9 km/h 79% 0.2 mm 33 W/m2
14:08 3.7 °C 0.4 °C 1034.5 hPa NNE 4.7 km/h 9.7 km/h 79% 0.2 mm 32 W/m2
14:13 3.8 °C 0.3 °C 1034.5 hPa NNE 12.9 km/h 12.9 km/h 78% 0.2 mm 32 W/m2
14:18 3.9 °C -0.1 °C 1034.2 hPa ENE 13 km/h 17.7 km/h 75% 0.2 mm 44 W/m2
14:23 4 °C -0.4 °C 1034.2 hPa ENE 3.2 km/h 17.7 km/h 73% 0.2 mm 33 W/m2
14:28 4.1 °C -0.5 °C 1034.2 hPa North 4.7 km/h 8 km/h 72% 0.2 mm 30 W/m2
14:34 4.1 °C -0.7 °C 1034.2 hPa NNE 6.4 km/h 17.7 km/h 71% 0.2 mm 28 W/m2
14:39 4.2 °C -0.6 °C 1034.2 hPa Calm   6.4 km/h 71% 0.2 mm 28 W/m2
14:44 4.2 °C -0.6 °C 1033.9 hPa Calm   14.5 km/h 71% 0.2 mm 26 W/m2
14:49 4.1 °C -0.7 °C 1033.9 hPa Calm   6.4 km/h 71% 0.2 mm 25 W/m2
14:54 4.1 °C -0.7 °C 1033.9 hPa NE 4.7 km/h 8 km/h 71% 0.2 mm 26 W/m2
14:59 4.1 °C -0.7 °C 1033.9 hPa ENE 7.9 km/h 12.9 km/h 71% 0.0 mm 25 W/m2
15:04 4.1 °C -0.7 °C 1033.9 hPa NE 4.7 km/h 6.4 km/h 71% 0.0 mm 25 W/m2
15:09 4.2 °C -0.6 °C 1033.9 hPa ENE 7.9 km/h 9.7 km/h 71% 0.0 mm 25 W/m2
15:14 4.1 °C -0.7 °C 1033.5 hPa Calm   4.8 km/h 71% 0.0 mm 23 W/m2
15:19 4 °C -0.8 °C 1033.5 hPa Calm   8 km/h 71% 0.0 mm 23 W/m2
15:24 4 °C -0.6 °C 1033.5 hPa NE 1.4 km/h 4.8 km/h 72% 0.0 mm 21 W/m2
15:29 3.9 °C -0.7 °C 1033.5 hPa Calm   8 km/h 72% 0.0 mm 21 W/m2
15:34 3.9 °C -0.7 °C 1033.5 hPa ENE 4.7 km/h 8 km/h 72% 0.0 mm 21 W/m2
15:39 4 °C -0.6 °C 1033.5 hPa Calm   1.6 km/h 72% 0.0 mm 21 W/m2
15:44 3.8 °C -0.6 °C 1033.5 hPa ENE 3.2 km/h 8 km/h 73% 0.0 mm 21 W/m2
15:50 3.7 °C -0.7 °C 1033.5 hPa ENE 4.7 km/h 4.8 km/h 73% 0.0 mm 21 W/m2
15:55 3.7 °C -0.7 °C 1033.5 hPa Calm   6.4 km/h 73% 0.0 mm 19 W/m2
16:00 3.7 °C -0.7 °C 1033.5 hPa Calm     73% 0.0 mm 19 W/m2
16:05 3.6 °C -0.4 °C 1033.2 hPa Calm   4.8 km/h 75% 0.0 mm 18 W/m2
16:10 3.4 °C -0.6 °C 1033.5 hPa Calm     75% 0.0 mm 18 W/m2
16:15 3.1 °C -0.7 °C 1033.5 hPa Calm   1.6 km/h 76% 0.0 mm 18 W/m2
16:20 2.9 °C -0.7 °C 1033.5 hPa Calm     77% 0.0 mm 18 W/m2
16:25 2.8 °C -0.7 °C 1033.5 hPa Calm     78% 0.0 mm 16 W/m2
16:30 2.7 °C -0.8 °C 1033.5 hPa Calm   1.6 km/h 78% 0.0 mm 16 W/m2
16:35 2.6 °C -0.7 °C 1033.5 hPa NNW 4.7 km/h 6.4 km/h 79% 0.0 mm 14 W/m2
16:40 2.7 °C -0.8 °C 1033.5 hPa North 1.4 km/h 3.2 km/h 78% 0.0 mm 12 W/m2
16:45 2.8 °C -0.7 °C 1033.5 hPa Calm   6.4 km/h 78% 0.0 mm 12 W/m2
16:50 2.9 °C -0.7 °C 1033.5 hPa Calm   3.2 km/h 77% 0.0 mm 11 W/m2
16:55 3 °C -0.6 °C 1033.5 hPa Calm   6.4 km/h 77% 0.0 mm 11 W/m2
17:00 3.1 °C -0.5 °C 1033.5 hPa Calm     77% 0.0 mm 9 W/m2
17:05 3.1 °C -0.7 °C 1033.5 hPa Calm     76% 0.0 mm 7 W/m2
17:10 2.9 °C -0.9 °C 1033.5 hPa Calm     76% 0.0 mm 5 W/m2
17:15 2.9 °C -0.7 °C 1033.5 hPa Calm     77% 0.0 mm 0 W/m2
17:20 2.7 °C -0.9 °C 1033.5 hPa Calm     77% 0.0 mm 0 W/m2
17:25 2.5 °C -0.9 °C 1033.5 hPa Calm     78% 0.0 mm 0 W/m2
17:30 2.3 °C -1 °C 1033.5 hPa Calm     79% 0.0 mm 0 W/m2
17:35 2.1 °C -1.2 °C 1033.5 hPa Calm     79% 0.0 mm 0 W/m2
17:40 2.1 °C -1 °C 1033.5 hPa Calm     80% 0.0 mm 0 W/m2
17:45 2 °C -1.1 °C 1033.5 hPa Calm     80% 0.0 mm 0 W/m2
17:50 1.9 °C -1.2 °C 1033.5 hPa Calm     80% 0.0 mm 0 W/m2
17:55 1.8 °C -1.3 °C 1033.5 hPa Calm     80% 0.0 mm 0 W/m2
18:00 1.8 °C -1.3 °C 1033.9 hPa NNW 3.2 km/h 3.2 km/h 80% 0.0 mm 0 W/m2
18:05 1.8 °C -1.5 °C 1033.9 hPa Calm     79% 0.0 mm 0 W/m2
18:10 1.8 °C -1.5 °C 1033.9 hPa Calm   3.2 km/h 79% 0.0 mm 0 W/m2
18:15 1.8 °C -1.5 °C 1033.9 hPa Calm   3.2 km/h 79% 0.0 mm 0 W/m2
18:20 1.8 °C -1.5 °C 1033.9 hPa NNW 4.7 km/h 6.4 km/h 79% 0.0 mm 0 W/m2
18:25 1.7 °C -1.6 °C 1033.9 hPa Calm     79% 0.0 mm 0 W/m2
18:30 1.8 °C -1.3 °C 1033.9 hPa North 1.4 km/h 3.2 km/h 80% 0.0 mm 0 W/m2
18:35 1.9 °C -1.4 °C 1033.9 hPa Calm     79% 0.0 mm 0 W/m2
18:40 2.1 °C -1.3 °C 1033.9 hPa Calm     78% 0.0 mm 0 W/m2
18:45 2.2 °C -1.4 °C 1033.9 hPa Calm     77% 0.0 mm 0 W/m2
18:50 2.2 °C -1.4 °C 1033.9 hPa Calm   4.8 km/h 77% 0.0 mm 0 W/m2
18:55 2.2 °C -1.4 °C 1033.9 hPa Calm   6.4 km/h 77% 0.0 mm 0 W/m2
19:00 2.2 °C -1.2 °C 1033.9 hPa NNE 6.4 km/h 8 km/h 78% 0.0 mm 0 W/m2
19:05 2.2 °C -1.2 °C 1033.9 hPa Calm   1.6 km/h 78% 0.0 mm 0 W/m2
19:10 2.1 °C -1.3 °C 1033.9 hPa North 3.2 km/h 4.8 km/h 78% 0.0 mm 0 W/m2
19:15 2.1 °C -1.2 °C 1034.2 hPa Calm   3.2 km/h 79% 0.0 mm 0 W/m2
19:20 2.1 °C -1.2 °C 1034.2 hPa Calm   1.6 km/h 79% 0.0 mm 0 W/m2
19:25 1.9 °C -1.4 °C 1034.2 hPa Calm     79% 0.0 mm 0 W/m2
19:30 1.7 °C -1.4 °C 1034.2 hPa Calm     80% 0.0 mm 0 W/m2
19:35 1.5 °C -1.4 °C 1034.5 hPa Calm     81% 0.0 mm 0 W/m2
19:40 1.4 °C -1.5 °C 1034.5 hPa Calm     81% 0.0 mm 0 W/m2
19:45 1.2 °C -1.5 °C 1034.5 hPa Calm   1.6 km/h 82% 0.0 mm 0 W/m2
19:50 1 °C -1.6 °C 1034.5 hPa Calm     83% 0.0 mm 0 W/m2
19:55 0.9 °C -1.5 °C 1034.5 hPa Calm     84% 0.0 mm 0 W/m2
20:00 1 °C -1.4 °C 1034.5 hPa Calm     84% 0.0 mm 0 W/m2
20:05 1.1 °C -1.3 °C 1034.5 hPa NNW 1.4 km/h 1.6 km/h 84% 0.0 mm 0 W/m2
20:10 1.1 °C -1.5 °C 1034.5 hPa Calm   1.6 km/h 83% 0.0 mm 0 W/m2
20:15 1.1 °C -1.5 °C 1034.5 hPa Calm   3.2 km/h 83% 0.0 mm 0 W/m2
20:20 1.1 °C -1.5 °C 1034.5 hPa Calm     83% 0.0 mm 0 W/m2
20:25 1.1 °C -1.5 °C 1034.5 hPa Calm     83% 0.0 mm 0 W/m2
20:30 1 °C -1.4 °C 1034.5 hPa Calm     84% 0.0 mm 0 W/m2
20:35 0.8 °C -1.6 °C 1034.5 hPa Calm   3.2 km/h 84% 0.0 mm 0 W/m2
20:40 0.8 °C -1.6 °C 1034.5 hPa Calm   1.6 km/h 84% 0.0 mm 0 W/m2
20:45 0.7 °C -1.5 °C 1034.5 hPa NNE 1.4 km/h 1.6 km/h 85% 0.0 mm 0 W/m2
20:50 0.7 °C -1.5 °C 1034.5 hPa Calm     85% 0.0 mm 0 W/m2
20:55 0.6 °C -1.6 °C 1034.5 hPa Calm     85% 0.0 mm 0 W/m2
21:00 0.5 °C -1.7 °C 1034.5 hPa NNW 1.4 km/h 1.6 km/h 85% 0.0 mm 0 W/m2
21:05 0.4 °C -1.8 °C 1034.5 hPa Calm     85% 0.0 mm 0 W/m2
21:11 0.3 °C -1.8 °C 1034.5 hPa Calm   4.8 km/h 86% 0.0 mm 0 W/m2
21:16 0.3 °C -1.8 °C 1034.5 hPa Calm     86% 0.0 mm 0 W/m2
21:21 0.3 °C -1.8 °C 1034.5 hPa Calm     86% 0.0 mm 0 W/m2
21:26 0.3 °C -1.8 °C 1034.5 hPa Calm     86% 0.0 mm 0 W/m2
21:31 0.2 °C -1.9 °C 1034.5 hPa Calm   1.6 km/h 86% 0.0 mm 0 W/m2
21:36 0.2 °C -1.9 °C 1034.5 hPa Calm   6.4 km/h 86% 0.0 mm 0 W/m2
21:41 0.1 °C -2 °C 1034.5 hPa Calm   3.2 km/h 86% 0.0 mm 0 W/m2
21:46 0.1 °C -1.8 °C 1034.5 hPa Calm   1.6 km/h 87% 0.0 mm 0 W/m2
21:51 0 °C -1.9 °C 1034.5 hPa Calm   1.6 km/h 87% 0.0 mm 0 W/m2
21:56 0 °C -1.9 °C 1034.5 hPa Calm     87% 0.0 mm 0 W/m2
22:01 0 °C -1.7 °C 1034.5 hPa North 1.4 km/h 4.8 km/h 88% 0.0 mm 0 W/m2
22:06 0 °C -1.7 °C 1034.5 hPa Calm   1.6 km/h 88% 0.0 mm 0 W/m2
22:11 -0.1 °C -1.8 °C 1034.9 hPa Calm   4.8 km/h 88% 0.0 mm 0 W/m2
22:16 -0.1 °C -1.8 °C 1034.5 hPa Calm   3.2 km/h 88% 0.0 mm 0 W/m2
22:21 -0.1 °C -1.8 °C 1034.5 hPa Calm   4.8 km/h 88% 0.0 mm 0 W/m2
22:26 -0.1 °C -1.7 °C 1034.9 hPa Calm   3.2 km/h 89% 0.0 mm 0 W/m2
22:31 -0.1 °C -1.7 °C 1034.9 hPa Calm   4.8 km/h 89% 0.0 mm 0 W/m2
22:37 -0.1 °C -1.5 °C 1034.9 hPa Calm   1.6 km/h 90% 0.0 mm 0 W/m2
22:42 -0.1 °C -1.5 °C 1034.9 hPa Calm   6.4 km/h 90% 0.0 mm 0 W/m2
22:47 -0.1 °C -1.4 °C 1034.9 hPa Calm   3.2 km/h 91% 0.0 mm 0 W/m2
22:52 -0.1 °C -1.4 °C 1034.9 hPa Calm   6.4 km/h 91% 0.0 mm 0 W/m2
22:57 -0.1 °C -1.4 °C 1034.9 hPa Calm     91% 0.0 mm 0 W/m2
23:02 -0.1 °C -1.4 °C 1034.9 hPa Calm   4.8 km/h 91% 0.0 mm 0 W/m2
23:07 -0.1 °C -1.2 °C 1034.9 hPa Calm   1.6 km/h 92% 0.0 mm 0 W/m2
23:12 0 °C -1.1 °C 1035.2 hPa Calm     92% 0.0 mm 0 W/m2
23:17 -0.1 °C -1.2 °C 1035.2 hPa Calm   1.6 km/h 92% 0.0 mm 0 W/m2
23:22 -0.1 °C -1.1 °C 1035.2 hPa Calm     93% 0.0 mm 0 W/m2
23:27 0.1 °C -0.9 °C 1035.2 hPa Calm     93% 0.0 mm 0 W/m2
23:32 0.1 °C -0.9 °C 1035.6 hPa Calm   3.2 km/h 93% 0.0 mm 0 W/m2
23:37 0.2 °C -0.8 °C 1035.6 hPa Calm     93% 0.0 mm 0 W/m2
23:42 0.3 °C -0.7 °C 1035.2 hPa Calm   3.2 km/h 93% 0.0 mm 0 W/m2
23:47 0.3 °C -0.7 °C 1035.2 hPa Calm     93% 0.0 mm 0 W/m2
23:52 0.4 °C -0.6 °C 1035.2 hPa Calm     93% 0.0 mm 0 W/m2
23:57 0.4 °C -0.6 °C 1035.2 hPa Calm     93% 0.0 mm 0 W/m2
Juneau County Weather
Compliments of Weather Underground - 4 mb